Sunday, April 22, 2018, 9:49 PM EDT
Back to Local

KITH, Ithaca, Ithaca Tompkins Regional Airport

Location: Ithaca, NY, United States Lat: 42.491
Local Time: 9:49 PM EDT ( 1:49 GMT) Lon: -76.458
Time Zone: US/Eastern Elev: 1099 ft

Show me the last for .
Show Decoded

2018-04-22 20:56 METAR KITH 230056Z 02005KT 10SM CLR 08/M07 A3040 RMK AO2 SLP301 T00781072 =
2018-04-22 19:56 METAR KITH 222356Z 36005KT 10SM CLR 11/M08 A3038 RMK AO2 SLP296 T01061083 10156
                 20106 53004 =
2018-04-22 18:56 METAR KITH 222256Z 33006KT 10SM CLR 12/M07 A3037 RMK AO2 SLP294 T01221072 =
2018-04-22 17:56 METAR KITH 222156Z 33007KT 10SM CLR 14/M07 A3037 RMK AO2 SLP293 T01391072 =
2018-04-22 16:56 METAR KITH 222056Z 36009KT 10SM CLR 14/M08 A3037 RMK AO2 SLP292 T01441078 56009
                 =
2018-04-22 15:56 METAR KITH 221956Z 32008KT 10SM CLR 15/M06 A3037 RMK AO2 SLP292 T01501056 =
2018-04-22 14:56 METAR KITH 221856Z 33009KT 290V360 10SM CLR 15/M05 A3039 RMK AO2 SLP296
                 T01501050 =
2018-04-22 13:56 METAR KITH 221756Z 34009G15KT 310V010 10SM CLR 14/M06 A3040 RMK AO2 SLP302
                 T01441061 10150 20017 58013 =
2018-04-22 12:56 METAR KITH 221656Z 32009G16KT 10SM CLR 14/M08 A3041 RMK AO2 SLP306 T01391078 =
2018-04-22 11:56 METAR KITH 221556Z 29009KT 10SM CLR 13/M07 A3043 RMK AO2 SLP313 T01331072 =
2018-04-22 10:56 METAR KITH 221456Z VRB03KT 10SM CLR 12/M05 A3044 RMK AO2 SLP315 T01171050 51006
                 =
2018-04-22 09:56 METAR KITH 221356Z 31004KT 10SM CLR 09/M05 A3044 RMK AO2 SLP315 T00891050 =
2018-04-22 08:56 METAR KITH 221256Z 00000KT 10SM CLR 07/M05 A3043 RMK AO2 SLP312 T00671050 =
2018-04-22 07:56 METAR KITH 221156Z 00000KT 10SM CLR 02/01 A3042 RMK AO2 SLP310 T00170006 10017
                 21050 51012 =
2018-04-22 06:56 METAR KITH 221056Z VRB03KT 10SM CLR M03/M04 A3042 RMK AO2 SLP310 T10331044 =
2018-04-22 06:30 METAR KITH 221030Z VRB03KT 10SM CLR M04/M06 A3041 RMK AO2 =
2018-04-22 05:56 METAR KITH 220956Z AUTO 06004KT 10SM CLR M05/M07 A3039 RMK AO2 SLP302 T10501067
                 =
2018-04-22 04:56 METAR KITH 220856Z AUTO 07005KT 10SM CLR M03/M06 A3039 RMK AO2 SLP298 T10331056
                 58001 =
2018-04-22 03:56 METAR KITH 220756Z AUTO 07005KT 10SM CLR M03/M06 A3039 RMK AO2 SLP299 T10281056
                 =
2018-04-22 02:56 METAR KITH 220656Z AUTO 06004KT 10SM CLR M03/M05 A3039 RMK AO2 SLP300 T10281050
                 =
2018-04-22 01:56 METAR KITH 220556Z AUTO 06004KT 10SM CLR M02/M04 A3039 RMK AO2 SLP299 T10221044
                 10078 21022 58001 =
2018-04-22 00:56 METAR KITH 220456Z AUTO 08003KT 10SM CLR M02/M04 A3039 RMK AO2 SLP301 T10171039
                 401171061 =
2018-04-21 23:56 METAR KITH 220356Z AUTO 00000KT 10SM CLR M01/M03 A3039 RMK AO2 SLP300 T10111033
                 =
2018-04-21 22:56 METAR KITH 220256Z AUTO 00000KT 10SM CLR 00/M03 A3039 RMK AO2 SLP301 T00001033
                 51010 =
2018-04-21 21:56 METAR KITH 220156Z 00000KT 10SM CLR 01/M04 A3039 RMK AO2 SLP300 T00061039 =

Support USWX by starting your Amazon purchase here.